LIML

Linate Airport

Milan, Italy
TAF LIML 241700Z 2418/2518 12012KT CAVOK BECMG 2420/2422 06007KT
Issued Valid From Valid To
Sep-24 @ 17:00 UTC
(6 hours ago)
Sep-24 @ 18:00 UTC
(5 hours ago)
Sep-25 @ 18:00 UTC
(in 19 hours)
Expired Click to View Sep-24 @ 18:00 to Sep-24 @ 20:00
TAF LIML 241700Z 2418/2518 12012KT CAVOK
Wind Visibility Clouds Conditions
120° at 12 knots 10,000+ meters
  • No significant clouds
Becoming Sep-24 @ 20:00 to Sep-25 @ 18:00
BECMG 2420/2422 06007KT
Wind Visibility Clouds Conditions
60° at 7 knots 10,000+ meters
  • No significant clouds
TAF LIML 241700Z 2418/2518 12012KT CAVOK BECMG 2420/2422 06007KT
Issued Sep-24 @ 17:00 UTC
(6 hours ago)
Valid From Sep-24 @ 18:00 UTC
(5 hours ago)
Valid To Sep-25 @ 18:00 UTC
(in 19 hours)
Sep-24 @ 18:00 - Sep-24 @ 20:00
Wind Visibility
120° at 12 knots 10,000+ meters
Clouds
  • No significant clouds
Conditions
Becoming Sep-24 @ 20:00 - Sep-25 @ 18:00
Wind Visibility
60° at 7 knots 10,000+ meters
Clouds
  • No significant clouds
Conditions